createdAt,value
2023-03-05T07:41:30.413Z,999.55
2023-03-05T07:42:21.838Z,999.55
2023-03-05T07:43:22.729Z,999.54
2023-03-05T07:44:22.727Z,999.55
2023-03-05T07:45:22.703Z,999.55
2023-03-05T07:46:22.821Z,999.55
2023-03-05T07:47:22.848Z,999.55
2023-03-05T07:48:22.693Z,999.54
2023-03-05T07:49:22.677Z,999.57
2023-03-05T07:50:22.679Z,999.53
2023-03-05T07:51:22.647Z,999.53
2023-03-05T07:52:22.654Z,999.53
2023-03-05T07:53:22.775Z,999.52
2023-03-05T07:54:22.644Z,999.53
2023-03-05T07:55:22.608Z,999.53
2023-03-05T07:56:22.631Z,999.52
2023-03-05T07:57:22.592Z,999.52
2023-03-05T07:58:22.582Z,999.52
2023-03-05T07:59:22.729Z,999.51
2023-03-05T08:00:22.562Z,999.51
2023-03-05T08:01:22.551Z,999.50
2023-03-05T08:02:22.565Z,999.51
2023-03-05T08:03:22.544Z,999.51
2023-03-05T08:04:22.574Z,999.51
2023-03-05T08:05:22.644Z,999.50
2023-03-05T08:06:22.529Z,999.49
2023-03-05T08:07:22.501Z,999.49
2023-03-05T08:08:22.500Z,999.47
2023-03-05T08:09:22.471Z,999.47
2023-03-05T08:10:22.486Z,999.46
2023-03-05T08:11:22.623Z,999.47
2023-03-05T08:12:22.432Z,999.44
2023-03-05T08:13:22.444Z,999.43
2023-03-05T08:14:22.483Z,999.44
2023-03-05T08:15:22.430Z,999.44
2023-03-05T08:16:22.454Z,999.43
2023-03-05T08:17:22.518Z,999.43
2023-03-05T08:18:22.373Z,999.39
2023-03-05T08:19:22.410Z,999.38
2023-03-05T08:20:22.351Z,999.38
2023-03-05T08:21:22.339Z,999.34
2023-03-05T08:22:22.346Z,999.37
2023-03-05T08:23:22.489Z,999.33
2023-03-05T08:24:22.311Z,999.33
2023-03-05T08:25:22.302Z,999.31
2023-03-05T08:26:22.293Z,999.33
2023-03-05T08:27:22.271Z,999.32
2023-03-05T08:29:14.092Z,999.31
2023-03-05T08:30:14.812Z,999.29
2023-03-05T08:31:14.890Z,999.30
2023-03-05T08:32:14.805Z,999.27
2023-03-05T08:33:14.881Z,999.27
2023-03-05T08:34:14.810Z,999.28
2023-03-05T08:35:14.783Z,999.25
2023-03-05T08:36:14.764Z,999.27
2023-03-05T08:37:14.753Z,999.23
2023-03-05T08:38:14.744Z,999.25
2023-03-05T08:39:14.770Z,999.23
2023-03-05T08:40:14.914Z,999.20
2023-03-05T08:41:14.714Z,999.20
2023-03-05T08:42:14.708Z,999.21
2023-03-05T08:43:14.714Z,999.22
2023-03-05T08:44:14.670Z,999.23
2023-03-05T08:45:14.665Z,999.20
2023-03-05T08:46:14.852Z,999.19
2023-03-05T08:47:14.644Z,999.21
2023-03-05T08:48:14.629Z,999.15
2023-03-05T08:49:14.629Z,999.17
2023-03-05T08:50:14.623Z,999.15
2023-03-05T08:51:14.618Z,999.16
2023-03-05T08:52:14.744Z,999.15
2023-03-05T08:53:14.623Z,999.13
2023-03-05T08:54:14.584Z,999.10
2023-03-05T08:55:14.587Z,999.13
2023-03-05T08:56:14.562Z,999.12
2023-03-05T08:57:14.560Z,999.13
2023-03-05T08:58:14.671Z,999.11
2023-03-05T08:59:14.542Z,999.10
2023-03-05T09:00:14.513Z,999.10
2023-03-05T09:01:14.596Z,999.06
2023-03-05T09:02:14.503Z,999.07
2023-03-05T09:03:14.620Z,999.07
2023-03-05T09:04:14.609Z,999.08
2023-03-05T09:05:14.472Z,999.04
2023-03-05T09:06:14.876Z,999.06
2023-03-05T09:07:14.462Z,999.02
2023-03-05T09:08:14.438Z,999.02
2023-03-05T09:09:14.599Z,999.03
2023-03-05T09:10:14.588Z,999.00
2023-03-05T09:11:14.402Z,998.97
2023-03-05T09:12:14.779Z,999.01
2023-03-05T09:13:14.760Z,998.95
2023-03-05T09:14:14.360Z,998.97
2023-03-05T09:15:14.369Z,998.97
2023-03-05T09:16:14.528Z,998.96
2023-03-05T09:17:14.369Z,998.96
2023-03-05T09:18:14.320Z,998.94
2023-03-05T09:19:14.313Z,998.93
2023-03-05T09:20:14.305Z,998.93
2023-03-05T09:21:14.299Z,998.93
2023-03-05T09:22:14.430Z,998.93
2023-03-05T09:23:14.280Z,998.90
2023-03-05T09:24:14.267Z,998.87
2023-03-05T09:25:14.274Z,998.91
2023-03-05T09:26:14.246Z,998.86
2023-03-05T09:27:14.245Z,998.90
2023-03-05T09:28:15.496Z,998.89
2023-03-05T09:29:21.927Z,998.89
2023-03-05T09:30:14.197Z,998.91
2023-03-05T09:31:14.238Z,998.90
2023-03-05T09:32:14.218Z,998.88
2023-03-05T09:33:14.282Z,998.87
2023-03-05T09:34:14.420Z,998.86
2023-03-05T09:35:15.943Z,998.84
2023-03-05T09:36:14.139Z,998.85
2023-03-05T09:37:14.122Z,998.79
2023-03-05T09:38:14.120Z,998.82
2023-03-05T09:39:14.103Z,998.80
2023-03-05T09:40:14.252Z,998.81
2023-03-05T09:41:14.093Z,998.76
2023-03-05T09:42:14.081Z,998.76
2023-03-05T09:43:14.077Z,998.77
2023-03-05T09:44:14.048Z,998.79
2023-03-05T09:45:14.093Z,998.76
2023-03-05T09:46:14.226Z,998.75
2023-03-05T09:47:14.740Z,998.76
2023-03-05T09:48:14.003Z,998.77
2023-03-05T09:49:14.011Z,998.75
2023-03-05T09:50:13.988Z,998.75
2023-03-05T09:51:13.994Z,998.73
2023-03-05T09:52:14.147Z,998.74
2023-03-05T09:53:13.974Z,998.70
2023-03-05T09:54:13.959Z,998.70
2023-03-05T09:55:13.939Z,998.69
2023-03-05T09:56:13.934Z,998.70
2023-03-05T09:57:13.964Z,998.68
2023-03-05T09:58:14.058Z,998.64
2023-03-05T09:59:16.493Z,998.66
2023-03-05T10:00:13.880Z,998.63
2023-03-05T10:01:13.878Z,998.64
2023-03-05T10:02:13.923Z,998.65
2023-03-05T10:03:13.946Z,998.60
2023-03-05T10:04:14.117Z,998.57
2023-03-05T10:05:13.834Z,998.60
2023-03-05T10:06:13.849Z,998.62
2023-03-05T10:07:15.853Z,998.59
2023-03-05T10:08:13.812Z,998.57
2023-03-05T10:09:13.810Z,998.56
2023-03-05T10:10:13.942Z,998.53
2023-03-05T10:11:13.778Z,998.55
2023-03-05T10:12:14.749Z,998.56
2023-03-05T10:13:13.759Z,998.58
2023-03-05T10:14:13.761Z,998.61
2023-03-05T10:15:13.755Z,998.57
2023-03-05T10:16:13.957Z,998.58
2023-03-05T10:17:13.716Z,998.55
2023-03-05T10:18:13.748Z,998.55
2023-03-05T10:19:13.710Z,998.61
2023-03-05T10:20:13.682Z,998.54
2023-03-05T10:21:13.663Z,998.53
2023-03-05T10:22:13.909Z,998.51
2023-03-05T10:23:13.647Z,998.55
2023-03-05T10:24:13.639Z,998.54
2023-03-05T10:25:13.658Z,998.52
2023-03-05T10:26:13.626Z,998.53
2023-03-05T10:27:13.634Z,998.55
2023-03-05T10:28:13.761Z,998.55
2023-03-05T10:29:13.583Z,998.50
2023-03-05T10:30:13.615Z,998.54
2023-03-05T10:31:13.609Z,998.50
2023-03-05T10:32:13.718Z,998.49
2023-03-05T10:33:13.538Z,998.43
2023-03-05T10:34:13.861Z,998.45
2023-03-05T10:35:13.542Z,998.48
2023-03-05T10:36:13.559Z,998.48
2023-03-05T10:37:13.506Z,998.48
2023-03-05T10:38:13.500Z,998.43
2023-03-05T10:39:13.483Z,998.39
2023-03-05T10:40:13.623Z,998.42
2023-03-05T10:41:13.463Z,998.41
2023-03-05T10:42:13.447Z,998.38
2023-03-05T10:43:13.464Z,998.45
2023-03-05T10:44:13.433Z,998.40
2023-03-05T10:45:14.272Z,998.32
2023-03-05T10:46:13.602Z,998.38
2023-03-05T10:47:13.400Z,998.35
2023-03-05T10:48:13.392Z,998.31
2023-03-05T10:49:13.373Z,998.35
2023-03-05T10:50:13.360Z,998.29
2023-03-05T10:51:13.459Z,998.28
2023-03-05T10:52:13.522Z,998.30
2023-03-05T10:53:13.341Z,998.30
2023-03-05T10:54:13.376Z,998.25
2023-03-05T10:55:13.390Z,998.27
2023-03-05T10:56:13.306Z,998.25
2023-03-05T10:57:13.324Z,998.24
2023-03-05T10:58:13.470Z,998.26
2023-03-05T10:59:13.284Z,998.24
2023-03-05T11:00:13.292Z,998.29
2023-03-05T11:01:13.291Z,998.32
2023-03-05T11:02:13.272Z,998.27
2023-03-05T11:03:13.231Z,998.24
2023-03-05T11:04:13.264Z,998.25
2023-03-05T11:05:13.213Z,998.23
2023-03-05T11:06:13.193Z,998.29
2023-03-05T11:07:13.187Z,998.27
2023-03-05T11:08:13.177Z,998.25
2023-03-05T11:09:13.171Z,998.24
2023-03-05T11:10:13.286Z,998.24
2023-03-05T11:11:13.150Z,998.22
2023-03-05T11:12:13.139Z,998.21
2023-03-05T11:13:13.153Z,998.20
2023-03-05T11:14:13.145Z,998.21
2023-03-05T11:15:13.120Z,998.21
2023-03-05T11:16:13.269Z,998.22
2023-03-05T11:17:13.085Z,998.23
2023-03-05T11:18:13.073Z,998.24
2023-03-05T11:19:13.266Z,998.23
2023-03-05T11:20:13.459Z,998.17
2023-03-05T11:21:14.090Z,998.20
2023-03-05T11:22:13.154Z,998.19
2023-03-05T11:23:13.029Z,998.19
2023-03-05T11:24:13.000Z,998.15
2023-03-05T11:25:13.031Z,998.24
2023-03-05T11:26:12.988Z,998.16
2023-03-05T11:27:12.975Z,998.09
2023-03-05T11:28:15.258Z,998.17
2023-03-05T11:29:20.444Z,998.09
2023-03-05T11:30:12.949Z,998.06
2023-03-05T11:31:12.987Z,998.02
2023-03-05T11:32:12.964Z,998.10
2023-03-05T11:33:12.936Z,998.06
2023-03-05T11:34:13.066Z,998.10
2023-03-05T11:35:12.943Z,998.12
2023-03-05T11:36:12.891Z,998.07
2023-03-05T11:37:12.882Z,998.03
2023-03-05T11:38:12.859Z,998.00
2023-03-05T11:39:12.869Z,997.99
2023-03-05T11:40:13.138Z,997.96
2023-03-05T11:41:12.844Z,997.94
2023-03-05T11:42:12.831Z,997.94
2023-03-05T11:43:12.834Z,997.95
2023-03-05T11:44:13.669Z,998.06
2023-03-05T11:45:12.818Z,997.96
2023-03-05T11:46:12.941Z,998.00
2023-03-05T11:47:12.772Z,997.94
2023-03-05T11:48:12.770Z,998.01
2023-03-05T11:49:12.769Z,998.00
2023-03-05T11:50:12.770Z,997.98
2023-03-05T11:51:12.742Z,998.00
2023-03-05T11:52:12.858Z,997.98
2023-03-05T11:53:12.769Z,997.99
2023-03-05T11:54:12.725Z,997.98
2023-03-05T11:55:12.700Z,998.01
2023-03-05T11:56:12.710Z,997.97
2023-03-05T11:57:12.688Z,997.90
2023-03-05T11:58:12.866Z,997.98
2023-03-05T11:59:12.657Z,997.93
2023-03-05T12:00:12.683Z,997.92
2023-03-05T12:01:12.631Z,997.89
2023-03-05T12:02:12.616Z,997.91
2023-03-05T12:03:12.661Z,997.89
2023-03-05T12:04:12.709Z,997.87
2023-03-05T12:05:12.588Z,997.82
2023-03-05T12:06:12.581Z,997.83
2023-03-05T12:07:12.585Z,997.89
2023-03-05T12:08:12.582Z,997.82
2023-03-05T12:09:12.572Z,997.88
2023-03-05T12:10:12.708Z,997.84
2023-03-05T12:11:12.575Z,997.78
2023-03-05T12:12:12.527Z,997.87
2023-03-05T12:13:12.510Z,997.90
2023-03-05T12:14:12.530Z,997.85
2023-03-05T12:15:12.514Z,997.82
2023-03-05T12:16:12.686Z,997.86
2023-03-05T12:17:12.469Z,997.85
2023-03-05T12:18:12.452Z,997.82
2023-03-05T12:19:12.453Z,997.82
2023-03-05T12:20:12.538Z,997.79
2023-03-05T12:21:12.422Z,997.82
2023-03-05T12:22:12.585Z,997.81
2023-03-05T12:23:12.404Z,997.75
2023-03-05T12:24:12.398Z,997.77
2023-03-05T12:25:12.385Z,997.72
2023-03-05T12:26:12.393Z,997.76
2023-03-05T12:27:12.361Z,997.72
2023-03-05T12:28:12.545Z,997.73
2023-03-05T12:29:19.475Z,997.72
2023-03-05T12:30:12.326Z,997.69
2023-03-05T12:31:12.340Z,997.72
2023-03-05T12:32:12.377Z,997.66
2023-03-05T12:33:12.307Z,997.68
2023-03-05T12:34:12.426Z,997.68
2023-03-05T12:35:12.273Z,997.75
2023-03-05T12:36:12.268Z,997.71
2023-03-05T12:37:12.260Z,997.62
2023-03-05T12:38:26.193Z,997.64
2023-03-05T12:39:12.240Z,997.64
2023-03-05T12:40:12.394Z,997.63
2023-03-05T12:41:12.221Z,997.63
2023-03-05T12:42:12.201Z,997.60
2023-03-05T12:43:12.188Z,997.62
2023-03-05T12:44:12.191Z,997.56
2023-03-05T12:45:12.199Z,997.59
2023-03-05T12:46:12.435Z,997.57
2023-03-05T12:47:12.178Z,997.59
2023-03-05T12:48:12.317Z,997.56
2023-03-05T12:49:12.138Z,997.53
2023-03-05T12:50:12.150Z,997.57
2023-03-05T12:51:12.126Z,997.56
2023-03-05T12:52:12.278Z,997.55
2023-03-05T12:53:12.108Z,997.56
2023-03-05T12:54:12.088Z,997.63
2023-03-05T12:55:12.068Z,997.57
2023-03-05T12:56:12.857Z,997.55
2023-03-05T12:57:12.050Z,997.53
2023-03-05T12:58:12.246Z,997.52
2023-03-05T12:59:12.026Z,997.49
2023-03-05T13:00:12.031Z,997.48
2023-03-05T13:01:12.152Z,997.53
2023-03-05T13:02:12.000Z,997.48
2023-03-05T13:03:11.980Z,997.48
2023-03-05T13:04:12.070Z,997.48
2023-03-05T13:05:11.957Z,997.47
2023-03-05T13:06:12.007Z,997.43
2023-03-05T13:07:11.940Z,997.44
2023-03-05T13:08:14.771Z,997.43
2023-03-05T13:09:12.023Z,997.43
2023-03-05T13:10:12.086Z,997.46
2023-03-05T13:11:11.897Z,997.40
2023-03-05T13:12:11.936Z,997.43
2023-03-05T13:13:11.876Z,997.44
2023-03-05T13:14:11.895Z,997.47
2023-03-05T13:15:11.913Z,997.50
2023-03-05T13:16:12.057Z,997.47
2023-03-05T13:17:11.829Z,997.47
2023-03-05T13:18:11.845Z,997.48
2023-03-05T13:19:11.811Z,997.40
2023-03-05T13:20:11.833Z,997.42
2023-03-05T13:21:11.803Z,997.39
2023-03-05T13:22:11.955Z,997.40
2023-03-05T13:23:11.766Z,997.41
2023-03-05T13:24:13.740Z,997.42
2023-03-05T13:25:11.757Z,997.39
2023-03-05T13:26:11.738Z,997.37
2023-03-05T13:27:11.727Z,997.39
2023-03-05T13:28:11.879Z,997.37
2023-03-05T13:29:19.071Z,997.37
2023-03-05T13:30:11.811Z,997.38
2023-03-05T13:31:11.697Z,997.37
2023-03-05T13:32:11.726Z,997.33
2023-03-05T13:33:11.701Z,997.32
2023-03-05T13:34:11.820Z,997.33
2023-03-05T13:35:11.654Z,997.31
2023-03-05T13:36:12.098Z,997.33
2023-03-05T13:37:11.622Z,997.29
2023-03-05T13:38:11.984Z,997.29
2023-03-05T13:39:11.659Z,997.32
2023-03-05T13:40:11.818Z,997.21
2023-03-05T13:41:11.613Z,997.26
2023-03-05T13:42:11.605Z,997.28
2023-03-05T13:43:11.689Z,997.31
2023-03-05T13:44:11.557Z,997.26
2023-03-05T13:45:11.535Z,997.24
2023-03-05T13:46:11.929Z,997.25
2023-03-05T13:47:11.568Z,997.22
2023-03-05T13:48:11.516Z,997.18
2023-03-05T13:49:11.521Z,997.21
2023-03-05T13:50:11.479Z,997.19
2023-03-05T13:51:11.476Z,997.18
2023-03-05T13:52:11.664Z,997.15
2023-03-05T13:53:11.456Z,997.18
2023-03-05T13:54:11.450Z,997.17
2023-03-05T13:55:11.472Z,997.13
2023-03-05T13:56:11.425Z,997.15
2023-03-05T13:57:11.404Z,997.13
2023-03-05T13:58:11.539Z,997.12
2023-03-05T13:59:11.391Z,997.11
2023-03-05T14:00:11.383Z,997.10
2023-03-05T14:01:11.426Z,997.04
2023-03-05T14:02:11.364Z,997.09
2023-03-05T14:03:11.411Z,997.08
2023-03-05T14:04:11.496Z,997.08
2023-03-05T14:05:11.398Z,997.10
2023-03-05T14:06:11.323Z,997.06
2023-03-05T14:07:11.344Z,997.06
2023-03-05T14:08:11.296Z,997.05
2023-03-05T14:09:11.356Z,997.11
2023-03-05T14:10:11.414Z,997.08
2023-03-05T14:11:11.291Z,997.12
2023-03-05T14:12:11.292Z,997.06
2023-03-05T14:13:11.242Z,997.01
2023-03-05T14:14:11.249Z,997.00
2023-03-05T14:15:11.228Z,997.00
2023-03-05T14:16:11.411Z,997.06
2023-03-05T14:17:11.220Z,996.99
2023-03-05T14:18:11.236Z,996.98
2023-03-05T14:19:11.231Z,996.96
2023-03-05T14:20:11.186Z,996.97
2023-03-05T14:21:11.192Z,997.00
2023-03-05T14:22:11.318Z,996.94
2023-03-05T14:23:13.482Z,996.98
2023-03-05T14:24:11.226Z,996.96
2023-03-05T14:25:11.152Z,997.04
2023-03-05T14:26:11.116Z,996.94
2023-03-05T14:27:11.141Z,996.96
2023-03-05T14:28:11.282Z,996.92
2023-03-05T14:29:18.514Z,996.92
2023-03-05T14:30:11.071Z,996.92
2023-03-05T14:31:11.071Z,996.90
2023-03-05T14:32:11.075Z,996.88
2023-03-05T14:33:11.077Z,996.91
2023-03-05T14:34:11.187Z,996.88
2023-03-05T14:35:11.043Z,996.87
2023-03-05T14:36:11.049Z,996.88
2023-03-05T14:37:10.996Z,996.85
2023-03-05T14:38:10.983Z,996.84
2023-03-05T14:39:10.977Z,996.85
2023-03-05T14:40:11.061Z,996.85
2023-03-05T14:41:10.953Z,996.77
2023-03-05T14:42:10.969Z,996.81
2023-03-05T14:43:10.936Z,996.80
2023-03-05T14:44:10.929Z,996.82
2023-03-05T14:45:10.914Z,996.80
2023-03-05T14:46:12.406Z,996.80
2023-03-05T14:47:10.892Z,996.75
2023-03-05T14:48:10.895Z,996.74
2023-03-05T14:49:10.877Z,996.66
2023-03-05T14:50:10.940Z,996.73
2023-03-05T14:51:10.867Z,996.78
2023-03-05T14:52:11.310Z,996.70
2023-03-05T14:53:10.843Z,996.72
2023-03-05T14:54:10.825Z,996.74
2023-03-05T14:55:10.818Z,996.73
2023-03-05T14:56:10.805Z,996.69
2023-03-05T14:57:10.795Z,996.77
2023-03-05T14:58:10.931Z,996.67
2023-03-05T14:59:10.801Z,996.68
2023-03-05T15:00:10.773Z,996.65
2023-03-05T15:01:10.791Z,996.61
2023-03-05T15:02:10.791Z,996.64
2023-03-05T15:03:10.730Z,996.68
2023-03-05T15:04:10.859Z,996.65
2023-03-05T15:05:10.722Z,996.67
2023-03-05T15:06:10.701Z,996.61
2023-03-05T15:07:10.681Z,996.64
2023-03-05T15:08:10.725Z,996.60
2023-03-05T15:09:10.665Z,996.59
2023-03-05T15:10:10.708Z,996.60
2023-03-05T15:11:11.558Z,996.61
2023-03-05T15:12:10.637Z,996.60
2023-03-05T15:13:10.641Z,996.57
2023-03-05T15:14:10.668Z,996.61
2023-03-05T15:15:10.608Z,996.55
2023-03-05T15:16:10.772Z,996.56
2023-03-05T15:17:10.592Z,996.53
2023-03-05T15:18:10.571Z,996.52
2023-03-05T15:19:10.557Z,996.55
2023-03-05T15:20:10.567Z,996.54
2023-03-05T15:21:10.539Z,996.52
2023-03-05T15:22:10.723Z,996.52
2023-03-05T15:23:10.511Z,996.55
2023-03-05T15:24:11.488Z,996.53
2023-03-05T15:25:10.494Z,996.54
2023-03-05T15:26:10.596Z,996.54
2023-03-05T15:27:10.496Z,996.54
2023-03-05T15:28:10.629Z,996.50
2023-03-05T15:29:18.058Z,996.50
2023-03-05T15:30:10.446Z,996.57
2023-03-05T15:31:10.504Z,996.50
2023-03-05T15:32:10.472Z,996.47
2023-03-05T15:33:10.430Z,996.49
2023-03-05T15:34:10.570Z,996.52
2023-03-05T15:35:10.417Z,996.47
2023-03-05T15:36:10.431Z,996.49
2023-03-05T15:37:10.364Z,996.46
2023-03-05T15:38:10.377Z,996.48
2023-03-05T15:39:10.352Z,996.49
2023-03-05T15:40:10.506Z,996.44
2023-03-05T15:41:10.349Z,996.48
2023-03-05T15:42:10.352Z,996.48
2023-03-05T15:43:10.354Z,996.46
2023-03-05T15:44:10.339Z,996.43
2023-03-05T15:45:10.294Z,996.41
2023-03-05T15:46:10.465Z,996.39
2023-03-05T15:47:10.274Z,996.41
2023-03-05T15:48:10.347Z,996.41
2023-03-05T15:49:10.246Z,996.40
2023-03-05T15:50:10.261Z,996.40
2023-03-05T15:51:10.228Z,996.47
2023-03-05T15:52:10.414Z,996.37
2023-03-05T15:53:10.210Z,996.41
2023-03-05T15:54:10.196Z,996.38
2023-03-05T15:55:10.190Z,996.39
2023-03-05T15:56:10.187Z,996.41
2023-03-05T15:57:10.207Z,996.37
2023-03-05T15:58:10.466Z,996.34
2023-03-05T15:59:10.178Z,996.34
2023-03-05T16:00:10.184Z,996.40
2023-03-05T16:01:10.130Z,996.35
2023-03-05T16:02:10.140Z,996.32
2023-03-05T16:03:10.139Z,996.32
2023-03-05T16:04:10.258Z,996.31
2023-03-05T16:05:10.090Z,996.30
2023-03-05T16:06:10.097Z,996.30
2023-03-05T16:07:10.066Z,996.29
2023-03-05T16:08:10.057Z,996.28
2023-03-05T16:09:10.082Z,996.31
2023-03-05T16:10:10.318Z,996.34
2023-03-05T16:11:10.025Z,996.28
2023-03-05T16:12:10.030Z,996.28
2023-03-05T16:13:10.036Z,996.26
2023-03-05T16:14:10.031Z,996.27
2023-03-05T16:15:10.001Z,996.28
2023-03-05T16:16:10.177Z,996.29
2023-03-05T16:17:09.963Z,996.30
2023-03-05T16:18:09.962Z,996.32
2023-03-05T16:19:09.946Z,996.32
2023-03-05T16:20:09.952Z,996.31
2023-03-05T16:21:09.934Z,996.32
2023-03-05T16:22:10.066Z,996.30
2023-03-05T16:23:09.904Z,996.31
2023-03-05T16:24:09.897Z,996.33
2023-03-05T16:25:09.877Z,996.32
2023-03-05T16:26:09.869Z,996.33
2023-03-05T16:27:09.876Z,996.31
2023-03-05T16:28:10.009Z,996.34
2023-03-05T16:29:17.085Z,996.32
2023-03-05T16:30:09.819Z,996.35
2023-03-05T16:31:09.834Z,996.33
2023-03-05T16:32:09.868Z,996.33
2023-03-05T16:33:09.804Z,996.30
2023-03-05T16:34:09.943Z,996.31
2023-03-05T16:35:09.790Z,996.31
2023-03-05T16:36:09.764Z,996.32
2023-03-05T16:37:09.767Z,996.30
2023-03-05T16:38:09.761Z,996.29
2023-03-05T16:39:09.736Z,996.28
2023-03-05T16:40:09.910Z,996.27
2023-03-05T16:41:09.729Z,996.24
2023-03-05T16:42:09.701Z,996.30
2023-03-05T16:43:09.706Z,996.24
2023-03-05T16:44:09.691Z,996.26
2023-03-05T16:45:09.676Z,996.28
2023-03-05T16:46:09.751Z,996.28
2023-03-05T16:47:09.676Z,996.29
2023-03-05T16:48:09.634Z,996.29
2023-03-05T16:49:09.652Z,996.29
2023-03-05T16:50:09.647Z,996.29
2023-03-05T16:51:09.626Z,996.28
2023-03-05T16:52:18.620Z,996.27
2023-03-05T16:53:09.591Z,996.28
2023-03-05T16:54:10.200Z,996.26
2023-03-05T16:55:09.636Z,996.27
2023-03-05T16:56:09.652Z,996.27
2023-03-05T16:57:09.631Z,996.28
2023-03-05T16:58:09.800Z,996.29
2023-03-05T16:59:09.541Z,996.31
2023-03-05T17:00:09.526Z,996.28
2023-03-05T17:01:09.549Z,996.26
2023-03-05T17:02:09.515Z,996.26
2023-03-05T17:03:09.491Z,996.24
2023-03-05T17:04:09.739Z,996.23
2023-03-05T17:05:09.530Z,996.27
2023-03-05T17:06:09.518Z,996.25
2023-03-05T17:07:09.503Z,996.23
2023-03-05T17:08:09.490Z,996.25
2023-03-05T17:09:09.475Z,996.24
2023-03-05T17:10:09.634Z,996.24
2023-03-05T17:11:09.401Z,996.25
2023-03-05T17:12:09.443Z,996.26
2023-03-05T17:13:09.433Z,996.26
2023-03-05T17:14:09.424Z,996.22
2023-03-05T17:15:09.424Z,996.24
2023-03-05T17:16:09.656Z,996.26
2023-03-05T17:17:09.406Z,996.24
2023-03-05T17:18:09.375Z,996.24
2023-03-05T17:19:09.382Z,996.25
2023-03-05T17:20:09.391Z,996.26
2023-03-05T17:21:09.359Z,996.25
2023-03-05T17:22:09.509Z,996.27
2023-03-05T17:23:09.358Z,996.29
2023-03-05T17:24:09.322Z,996.30
2023-03-05T17:25:09.311Z,996.30
2023-03-05T17:26:09.298Z,996.31
2023-03-05T17:27:09.250Z,996.33
2023-03-05T17:28:09.249Z,996.32
2023-03-05T17:29:16.614Z,996.34
2023-03-05T17:30:09.217Z,996.34
2023-03-05T17:31:09.202Z,996.34
2023-03-05T17:32:09.211Z,996.35
2023-03-05T17:33:09.200Z,996.37
2023-03-05T17:34:09.310Z,996.37
2023-03-05T17:35:09.193Z,996.37
2023-03-05T17:36:09.134Z,996.37
2023-03-05T17:37:09.129Z,996.37
2023-03-05T17:38:09.169Z,996.36
2023-03-05T17:39:09.113Z,996.36
2023-03-05T17:40:09.265Z,996.36
2023-03-05T17:41:09.117Z,996.36
2023-03-05T17:42:09.357Z,996.36
2023-03-05T17:43:09.074Z,996.35
2023-03-05T17:44:09.157Z,996.36
2023-03-05T17:45:09.128Z,996.35
2023-03-05T17:46:09.324Z,996.35
2023-03-05T17:47:09.049Z,996.36
2023-03-05T17:48:09.015Z,996.36
2023-03-05T17:49:09.025Z,996.37
2023-03-05T17:50:08.993Z,996.37
2023-03-05T17:51:08.985Z,996.36
2023-03-05T17:52:09.133Z,996.37
2023-03-05T17:53:08.973Z,996.38
2023-03-05T17:54:08.958Z,996.37
2023-03-05T17:55:08.961Z,996.37
2023-03-05T17:56:08.948Z,996.38
2023-03-05T17:57:08.929Z,996.37
2023-03-05T17:58:09.053Z,996.36
2023-03-05T17:59:08.915Z,996.35
2023-03-05T18:00:08.901Z,996.35
2023-03-05T18:01:08.921Z,996.35
2023-03-05T18:02:08.877Z,996.34
2023-03-05T18:03:08.881Z,996.34
2023-03-05T18:04:09.149Z,996.33
2023-03-05T18:05:08.865Z,996.32
2023-03-05T18:06:08.830Z,996.32
2023-03-05T18:07:08.839Z,996.31
2023-03-05T18:08:08.811Z,996.30
2023-03-05T18:09:08.822Z,996.29
2023-03-05T18:10:08.959Z,996.29
2023-03-05T18:11:08.786Z,996.29
2023-03-05T18:12:08.766Z,996.27
2023-03-05T18:13:08.782Z,996.26
2023-03-05T18:14:08.768Z,996.25
2023-03-05T18:15:08.748Z,996.25
2023-03-05T18:16:08.910Z,996.24
2023-03-05T18:17:08.722Z,996.24
2023-03-05T18:18:08.705Z,996.23
2023-03-05T18:19:08.706Z,996.22
2023-03-05T18:20:08.700Z,996.22
2023-03-05T18:21:08.691Z,996.21
2023-03-05T18:22:08.855Z,996.21
2023-03-05T18:23:08.668Z,996.21
2023-03-05T18:24:08.703Z,996.20
2023-03-05T18:25:08.650Z,996.19
2023-03-05T18:26:08.627Z,996.18
2023-03-05T18:27:08.637Z,996.18
2023-03-05T18:28:08.733Z,996.17
2023-03-05T18:29:18.579Z,996.16
2023-03-05T18:30:08.574Z,996.17
2023-03-05T18:31:08.704Z,996.16
2023-03-05T18:32:08.603Z,996.15
2023-03-05T18:33:08.548Z,996.14
2023-03-05T18:34:08.691Z,996.15
2023-03-05T18:35:08.529Z,996.16
2023-03-05T18:36:08.522Z,996.16
2023-03-05T18:37:08.513Z,996.16
2023-03-05T18:38:08.491Z,996.17
2023-03-05T18:39:08.498Z,996.17
2023-03-05T18:40:08.604Z,996.16
2023-03-05T18:41:08.454Z,996.16
2023-03-05T18:42:08.459Z,996.15
2023-03-05T18:43:08.437Z,996.15
2023-03-05T18:44:08.429Z,996.15
2023-03-05T18:45:08.442Z,996.14
2023-03-05T18:46:08.612Z,996.14
2023-03-05T18:47:08.397Z,996.14
2023-03-05T18:48:08.399Z,996.14
2023-03-05T18:49:08.379Z,996.14
2023-03-05T18:50:08.360Z,996.14
2023-03-05T18:51:08.367Z,996.14
2023-03-05T18:52:08.507Z,996.13
2023-03-05T18:53:08.344Z,996.13
2023-03-05T18:54:08.323Z,996.13
2023-03-05T18:55:08.318Z,996.13
2023-03-05T18:56:08.326Z,996.13
2023-03-05T18:57:08.324Z,996.14
2023-03-05T18:58:08.416Z,996.12
2023-03-05T18:59:08.298Z,996.11
2023-03-05T19:00:08.257Z,996.10
2023-03-05T19:01:08.299Z,996.10
2023-03-05T19:02:08.282Z,996.08
2023-03-05T19:03:08.231Z,996.07
2023-03-05T19:04:08.467Z,996.07
2023-03-05T19:05:08.230Z,996.06
2023-03-05T19:06:08.199Z,996.05
2023-03-05T19:07:08.230Z,996.03
2023-03-05T19:08:08.214Z,996.02
2023-03-05T19:09:08.173Z,996.01
2023-03-05T19:10:08.492Z,996.00
2023-03-05T19:11:08.163Z,996.01
2023-03-05T19:12:08.140Z,996.02
2023-03-05T19:13:08.133Z,996.02
2023-03-05T19:14:08.128Z,996.02
2023-03-05T19:15:08.117Z,996.01
2023-03-05T19:16:08.316Z,996.01
2023-03-05T19:17:08.100Z,996.00
2023-03-05T19:18:08.072Z,996.00
2023-03-05T19:19:08.084Z,995.99
2023-03-05T19:20:08.114Z,995.98
2023-03-05T19:21:08.117Z,995.96
2023-03-05T19:22:08.233Z,995.96
2023-03-05T19:23:08.093Z,995.96
2023-03-05T19:24:08.072Z,995.96
2023-03-05T19:25:08.065Z,995.96
2023-03-05T19:26:08.063Z,995.96
2023-03-05T19:27:08.045Z,995.96
2023-03-05T19:28:08.162Z,995.95
2023-03-05T19:29:15.185Z,995.94
2023-03-05T19:30:08.007Z,995.94
2023-03-05T19:31:08.054Z,995.93
2023-03-05T19:32:08.063Z,995.92
2023-03-05T19:33:07.979Z,995.91
2023-03-05T19:34:08.108Z,995.90
2023-03-05T19:35:07.965Z,995.91
2023-03-05T19:36:07.941Z,995.90
2023-03-05T19:37:07.937Z,995.90
2023-03-05T19:38:07.952Z,995.89
2023-03-05T19:39:07.917Z,995.89
2023-03-05T19:40:08.078Z,995.89
2023-03-05T19:41:07.896Z,995.89
2023-03-05T19:42:07.884Z,995.89
2023-03-05T19:43:07.870Z,995.90
2023-03-05T19:44:07.856Z,995.91
2023-03-05T19:45:07.864Z,995.90
2023-03-05T19:46:08.081Z,995.91
2023-03-05T19:47:07.875Z,995.91
2023-03-05T19:48:07.812Z,995.92
2023-03-05T19:49:07.821Z,995.91
2023-03-05T19:50:07.792Z,995.91
2023-03-05T19:51:07.796Z,995.90
2023-03-05T19:52:07.961Z,995.89
2023-03-05T19:53:07.772Z,995.89
2023-03-05T19:54:07.770Z,995.89
2023-03-05T19:55:07.745Z,995.90
2023-03-05T19:56:07.735Z,995.91
2023-03-05T19:57:07.721Z,995.91
2023-03-05T19:58:07.880Z,995.90
2023-03-05T19:59:07.706Z,995.90
2023-03-05T20:00:07.692Z,995.90
2023-03-05T20:01:07.702Z,995.89
2023-03-05T20:02:07.668Z,995.89
2023-03-05T20:03:07.661Z,995.87
2023-03-05T20:04:07.795Z,995.87
2023-03-05T20:05:07.638Z,995.87
2023-03-05T20:06:07.643Z,995.86
2023-03-05T20:07:07.622Z,995.86
2023-03-05T20:08:07.640Z,995.85
2023-03-05T20:09:08.121Z,995.84
2023-03-05T20:10:08.003Z,995.84